createdAt,value
2023-04-14T00:00:17.544Z,86.50
2023-04-14T00:00:49.355Z,83.80
2023-04-14T00:01:21.209Z,86.20
2023-04-14T00:01:53.170Z,84.10
2023-04-14T00:02:25.246Z,84.40
2023-04-14T00:02:57.556Z,85.60
2023-04-14T00:03:29.818Z,84.60
2023-04-14T00:04:02.250Z,85.30
2023-04-14T00:04:34.321Z,84.30
2023-04-14T00:05:08.197Z,83.60
2023-04-14T00:05:40.078Z,83.90
2023-04-14T00:06:11.914Z,83.30
2023-04-14T00:06:43.660Z,86.20
2023-04-14T00:07:15.434Z,85.80
2023-04-14T00:07:47.202Z,84.70
2023-04-14T00:08:18.939Z,85.80
2023-04-14T00:08:50.727Z,83.00
2023-04-14T00:09:22.553Z,83.90
2023-04-14T00:09:54.292Z,84.00
2023-04-14T00:10:26.646Z,83.60
2023-04-14T00:10:58.432Z,83.60
2023-04-14T00:11:32.934Z,81.80
2023-04-14T00:12:06.754Z,84.60
2023-04-14T00:12:38.498Z,83.80
2023-04-14T00:13:10.294Z,85.60
2023-04-14T00:13:42.105Z,83.80
2023-04-14T00:14:13.833Z,83.20
2023-04-14T00:14:45.912Z,84.10
2023-04-14T00:15:18.366Z,84.40
2023-04-14T00:15:50.217Z,83.70
2023-04-14T00:16:22.050Z,84.00
2023-04-14T00:16:54.494Z,83.70
2023-04-14T00:17:26.631Z,83.80
2023-04-14T00:17:58.512Z,84.40
2023-04-14T00:18:30.539Z,83.90
2023-04-14T00:19:02.690Z,86.50
2023-04-14T00:19:34.796Z,83.90
2023-04-14T00:20:07.152Z,85.00
2023-04-14T00:20:39.021Z,83.70
2023-04-14T00:21:10.887Z,85.70
2023-04-14T00:21:42.659Z,85.90
2023-04-14T00:22:14.532Z,84.00
2023-04-14T00:22:46.350Z,83.70
2023-04-14T00:23:18.604Z,84.50
2023-04-14T00:23:50.667Z,85.70
2023-04-14T00:24:22.476Z,83.90
2023-04-14T00:24:54.311Z,84.00
2023-04-14T00:25:26.185Z,84.60
2023-04-14T00:25:58.122Z,85.90
2023-04-14T00:26:33.000Z,84.10
2023-04-14T00:27:05.106Z,84.80
2023-04-14T00:27:36.983Z,86.00
2023-04-14T00:28:08.772Z,84.50
2023-04-14T00:28:40.564Z,84.00
2023-04-14T00:29:13.285Z,84.50
2023-04-14T00:29:47.132Z,84.20
2023-04-14T00:30:18.903Z,85.00
2023-04-14T00:30:50.867Z,84.50
2023-04-14T00:31:22.802Z,84.20
2023-04-14T00:31:54.592Z,83.80
2023-04-14T00:32:26.359Z,83.90
2023-04-14T00:32:58.233Z,85.30
2023-04-14T00:33:30.344Z,83.70
2023-04-14T00:34:02.083Z,84.10
2023-04-14T00:34:35.693Z,84.40
2023-04-14T00:35:07.755Z,84.10
2023-04-14T00:35:39.675Z,83.90
2023-04-14T00:36:11.566Z,85.70
2023-04-14T00:36:43.428Z,83.70
2023-04-14T00:37:16.578Z,84.80
2023-04-14T00:37:48.363Z,85.10
2023-04-14T00:38:20.325Z,85.70
2023-04-14T00:38:52.496Z,84.00
2023-04-14T00:39:24.346Z,83.90
2023-04-14T00:39:56.401Z,84.00
2023-04-14T00:40:29.789Z,85.30
2023-04-14T00:41:01.576Z,84.00
2023-04-14T00:41:36.423Z,83.90
2023-04-14T00:42:08.266Z,84.20
2023-04-14T00:42:47.361Z,85.00
2023-04-14T00:43:19.608Z,86.00
2023-04-14T00:43:54.892Z,86.10
2023-04-14T00:44:26.935Z,84.40
2023-04-14T00:44:58.820Z,85.80
2023-04-14T00:45:30.943Z,83.70
2023-04-14T00:46:03.171Z,83.70
2023-04-14T00:46:36.331Z,84.00
2023-04-14T00:47:08.269Z,84.00
2023-04-14T00:47:42.827Z,86.20
2023-04-14T00:48:16.749Z,85.50
2023-04-14T00:48:48.842Z,85.90
2023-04-14T00:49:20.885Z,86.80
2023-04-14T00:49:52.781Z,84.10
2023-04-14T00:50:24.813Z,84.80
2023-04-14T00:50:56.711Z,83.60
2023-04-14T02:36:06.190Z,83.50
2023-04-14T02:36:45.059Z,84.10
2023-04-14T02:37:22.717Z,84.40
2023-04-14T02:38:02.798Z,84.40
2023-04-14T02:38:44.477Z,84.80
2023-04-14T02:39:21.482Z,84.90
2023-04-14T02:40:03.331Z,84.70
2023-04-14T02:40:41.199Z,86.60
2023-04-14T02:41:21.711Z,86.00
2023-04-14T02:42:03.076Z,85.50
2023-04-14T02:42:40.850Z,85.60
2023-04-14T02:43:18.497Z,85.30
2023-04-14T02:44:10.454Z,86.30
2023-04-14T02:45:05.195Z,85.50
2023-04-14T02:45:40.553Z,85.40
2023-04-14T02:46:17.590Z,85.50
2023-04-14T02:47:03.843Z,85.50
2023-04-14T02:47:42.964Z,86.80
2023-04-14T02:48:19.116Z,85.30
2023-04-14T02:48:54.300Z,87.10
2023-04-14T02:49:27.577Z,86.80
2023-04-14T02:50:02.558Z,86.80
2023-04-14T02:50:39.976Z,85.30
2023-04-14T02:51:21.565Z,85.20
2023-04-14T02:51:56.181Z,86.90
2023-04-14T02:52:31.509Z,85.90
2023-04-14T02:53:04.702Z,87.30
2023-04-14T02:53:40.950Z,86.10
2023-04-14T02:54:24.637Z,86.50
2023-04-14T02:54:57.628Z,85.60
2023-04-14T02:55:31.917Z,85.70
2023-04-14T02:56:04.361Z,87.10
2023-04-14T02:56:40.843Z,84.20
2023-04-14T02:57:13.437Z,85.70
2023-04-14T02:57:50.013Z,86.40
2023-04-14T02:58:22.263Z,86.20
2023-04-14T02:58:55.556Z,84.80
2023-04-14T02:59:29.883Z,85.80
2023-04-14T03:00:07.212Z,85.70
2023-04-14T03:00:46.986Z,85.80
2023-04-14T03:01:21.283Z,85.80
2023-04-14T03:01:57.525Z,87.90
2023-04-14T03:02:30.113Z,87.30
2023-04-14T03:03:12.672Z,83.80
2023-04-14T03:03:44.686Z,86.50
2023-04-14T03:04:18.509Z,87.10
2023-04-14T03:04:53.272Z,86.20
2023-04-14T03:06:04.916Z,85.80
2023-04-14T03:06:40.353Z,87.30
2023-04-14T03:07:14.623Z,85.70
2023-04-14T03:07:47.748Z,86.10
2023-04-14T03:08:24.583Z,86.50
2023-04-14T03:08:59.149Z,85.80
2023-04-14T03:09:32.846Z,86.60
2023-04-14T03:10:08.427Z,87.80
2023-04-14T03:10:41.106Z,85.70
2023-04-14T03:11:15.610Z,85.90
2023-04-14T03:11:50.434Z,86.20
2023-04-14T03:12:25.461Z,85.80
2023-04-14T03:13:00.239Z,85.80
2023-04-14T03:13:35.546Z,86.10
2023-04-14T03:14:08.254Z,86.10
2023-04-14T03:14:42.838Z,86.40
2023-04-14T03:15:17.383Z,86.10
2023-04-14T03:15:52.783Z,86.00
2023-04-14T03:16:53.602Z,85.50
2023-04-14T03:17:27.441Z,86.90
2023-04-14T03:18:01.235Z,85.50
2023-04-14T03:18:36.937Z,87.40
2023-04-14T03:19:12.455Z,87.00
2023-04-14T03:19:50.488Z,86.20
2023-04-14T03:20:23.400Z,85.60
2023-04-14T03:21:01.774Z,87.20
2023-04-14T03:21:36.481Z,85.70
2023-04-14T03:22:10.586Z,85.50
2023-04-14T03:22:44.147Z,85.60
2023-04-14T03:23:20.456Z,86.00
2023-04-14T03:23:58.748Z,87.20
2023-04-14T03:24:34.851Z,85.70
2023-04-14T03:25:07.388Z,87.40
2023-04-14T03:25:41.517Z,85.90
2023-04-14T03:26:23.398Z,87.00
2023-04-14T03:27:01.789Z,85.70
2023-04-14T03:27:35.662Z,87.40
2023-04-14T03:28:13.492Z,87.90
2023-04-14T03:28:48.422Z,87.20
2023-04-14T03:29:23.054Z,86.30
2023-04-14T03:30:00.445Z,85.70
2023-04-14T03:30:36.724Z,85.80
2023-04-14T03:31:12.424Z,86.80
2023-04-14T03:31:57.749Z,85.80
2023-04-14T03:32:35.772Z,85.90
2023-04-14T03:33:12.401Z,86.70
2023-04-14T03:33:46.936Z,85.80
2023-04-14T03:34:23.903Z,87.70
2023-04-14T03:35:01.322Z,85.80
2023-04-14T03:35:34.298Z,86.80
2023-04-14T03:36:07.860Z,86.30
2023-04-14T03:36:42.461Z,85.80
2023-04-14T03:37:20.624Z,87.30
2023-04-14T03:37:59.593Z,86.10
2023-04-14T03:38:33.115Z,87.60
2023-04-14T03:39:06.883Z,85.80
2023-04-14T03:39:43.148Z,86.70
2023-04-14T03:40:17.475Z,86.80
2023-04-14T03:40:54.974Z,85.60
2023-04-14T03:41:31.133Z,86.00
2023-04-14T03:42:05.432Z,85.60
2023-04-14T03:42:40.552Z,85.60
2023-04-14T03:43:18.384Z,86.30
2023-04-14T03:43:54.503Z,87.40
2023-04-14T03:44:28.744Z,85.90
2023-04-14T03:45:02.412Z,87.40
2023-04-14T03:45:38.719Z,86.80
2023-04-14T03:46:11.985Z,85.80
2023-04-14T03:46:44.835Z,86.30
2023-04-14T03:47:19.232Z,86.00
2023-04-14T03:47:57.706Z,87.20
2023-04-14T03:48:34.390Z,85.90
2023-04-14T03:49:11.365Z,85.90
2023-04-14T03:49:48.399Z,87.10
2023-04-14T03:50:23.180Z,85.80
2023-04-14T03:50:59.939Z,85.90
2023-04-14T03:51:33.508Z,86.30
2023-04-14T03:52:10.396Z,85.80
2023-04-14T03:52:45.197Z,85.80
2023-04-14T03:53:19.351Z,86.00
2023-04-14T03:53:52.668Z,86.50
2023-04-14T03:54:30.456Z,87.60
2023-04-14T03:55:06.786Z,87.20
2023-04-14T03:55:43.818Z,86.10
2023-04-14T03:56:17.624Z,86.00
2023-04-14T03:56:51.900Z,86.00
2023-04-14T03:57:27.543Z,86.80
2023-04-14T03:58:01.872Z,86.10
2023-04-14T03:58:36.248Z,87.40
2023-04-14T03:59:13.200Z,86.60
2023-04-14T03:59:50.524Z,86.10
2023-04-14T04:00:27.721Z,86.90
2023-04-14T04:01:02.257Z,86.40
2023-04-14T04:01:34.580Z,86.10
2023-04-14T04:02:08.715Z,87.60
2023-04-14T04:02:43.017Z,86.70
2023-04-14T04:03:17.916Z,86.90
2023-04-14T04:03:53.338Z,86.20
2023-04-14T04:04:28.900Z,86.00
2023-04-14T04:05:04.045Z,86.00
2023-04-14T04:05:40.383Z,86.00
2023-04-14T04:06:12.780Z,86.00
2023-04-14T04:06:44.721Z,87.70
2023-04-14T04:07:19.275Z,87.00
2023-04-14T04:07:52.399Z,86.20
2023-04-14T04:08:29.778Z,87.60
2023-04-14T04:09:04.858Z,86.10
2023-04-14T04:09:38.098Z,87.80
2023-04-14T04:10:13.321Z,88.00
2023-04-14T04:10:48.412Z,87.00
2023-04-14T04:11:22.958Z,86.40
2023-04-14T04:11:58.386Z,86.50
2023-04-14T04:12:33.432Z,86.40
2023-04-14T04:13:12.939Z,86.50
2023-04-14T04:13:48.675Z,86.20
2023-04-14T04:14:22.690Z,86.20
2023-04-14T04:14:55.707Z,86.30
2023-04-14T04:15:30.356Z,86.30
2023-04-14T04:16:03.024Z,87.60
2023-04-14T04:16:37.064Z,87.10
2023-04-14T04:17:09.535Z,88.00
2023-04-14T04:17:43.509Z,86.30
2023-04-14T04:18:18.135Z,88.10
2023-04-14T04:19:02.305Z,88.00
2023-04-14T04:19:36.471Z,86.60
2023-04-14T04:20:12.743Z,88.20
2023-04-14T04:20:48.416Z,86.30
2023-04-14T04:21:27.339Z,87.40
2023-04-14T04:22:01.474Z,86.30
2023-04-14T04:22:37.765Z,86.90
2023-04-14T04:23:10.598Z,86.30
2023-04-14T04:23:50.764Z,86.80
2023-04-14T04:24:24.707Z,86.40
2023-04-14T04:24:58.340Z,86.50
2023-04-14T04:25:40.821Z,86.40
2023-04-14T04:26:25.666Z,86.50
2023-04-14T04:26:58.601Z,88.20
2023-04-14T04:27:30.901Z,86.60
2023-04-14T04:28:11.564Z,87.60
2023-04-14T04:28:43.921Z,87.50
2023-04-14T04:29:16.334Z,86.60
2023-04-14T04:29:49.120Z,87.50
2023-04-14T04:30:23.911Z,86.80
2023-04-14T04:30:59.089Z,86.70
2023-04-14T04:31:32.822Z,86.80
2023-04-14T04:32:06.425Z,86.90
2023-04-14T04:32:39.554Z,86.70
2023-04-14T04:33:15.085Z,86.80
2023-04-14T04:33:48.095Z,86.90
2023-04-14T04:34:23.357Z,86.90
2023-04-14T04:34:58.938Z,86.90
2023-04-14T04:35:33.777Z,86.80
2023-04-14T04:36:06.988Z,86.90
2023-04-14T04:36:44.940Z,87.00
2023-04-14T04:37:18.874Z,87.10
2023-04-14T04:37:51.725Z,88.10
2023-04-14T04:38:24.048Z,87.80
2023-04-14T04:38:57.349Z,87.30
2023-04-14T04:39:30.339Z,87.60
2023-04-14T04:40:02.271Z,87.10
2023-04-14T04:40:41.199Z,87.20
2023-04-14T04:41:24.890Z,88.40
2023-04-14T04:42:08.538Z,87.30
2023-04-14T04:42:42.373Z,87.30
2023-04-14T04:43:18.880Z,88.20
2023-04-14T04:43:51.437Z,88.50
2023-04-14T04:44:23.207Z,87.30
2023-04-14T04:44:55.188Z,87.20
2023-04-14T04:45:45.366Z,87.10
2023-04-14T04:46:42.667Z,87.30
2023-04-14T04:47:15.455Z,87.20
2023-04-14T04:47:49.220Z,88.30
2023-04-14T04:48:21.048Z,87.30
2023-04-14T04:48:55.170Z,88.50
2023-04-14T04:49:29.290Z,88.90
2023-04-14T04:50:06.932Z,89.20
2023-04-14T04:50:38.801Z,87.40
2023-04-14T04:51:10.587Z,89.00
2023-04-14T04:51:43.475Z,89.10
2023-04-14T04:52:15.325Z,87.30
2023-04-14T04:52:47.204Z,88.90
2023-04-14T04:53:19.017Z,89.10
2023-04-14T04:53:50.808Z,87.30
2023-04-14T04:54:22.864Z,87.60
2023-04-14T04:54:54.850Z,87.40
2023-04-14T04:55:26.632Z,87.30
2023-04-14T04:55:58.424Z,89.20
2023-04-14T04:56:30.405Z,88.60
2023-04-14T04:57:02.218Z,87.30
2023-04-14T04:57:34.009Z,87.50
2023-04-14T04:58:05.784Z,87.50
2023-04-14T04:58:37.523Z,88.70
2023-04-14T04:59:09.850Z,89.30
2023-04-14T04:59:41.646Z,86.00
2023-04-14T05:00:13.717Z,87.70
2023-04-14T05:00:45.482Z,87.60
2023-04-14T05:01:18.977Z,88.60
2023-04-14T05:01:51.056Z,87.60
2023-04-14T05:02:23.224Z,86.50
2023-04-14T05:02:55.695Z,87.60
2023-04-14T05:03:27.552Z,87.70
2023-04-14T05:03:59.428Z,87.80
2023-04-14T05:04:31.253Z,89.20
2023-04-14T05:05:03.620Z,87.80
2023-04-14T05:05:36.661Z,87.70
2023-04-14T05:06:08.499Z,87.70
2023-04-14T05:06:40.352Z,87.80
2023-04-14T05:07:12.107Z,88.80
2023-04-14T05:07:43.815Z,87.80
2023-04-14T05:08:15.634Z,87.80
2023-04-14T05:08:47.830Z,87.90
2023-04-14T05:09:19.595Z,88.00
2023-04-14T05:09:51.445Z,87.90
2023-04-14T05:10:24.763Z,88.00
2023-04-14T05:10:56.534Z,89.30
2023-04-14T05:11:28.274Z,87.90
2023-04-14T05:12:00.607Z,87.90
2023-04-14T05:12:32.450Z,89.40
2023-04-14T05:13:04.207Z,89.50
2023-04-14T05:13:35.979Z,87.90
2023-04-14T05:14:07.706Z,89.80
2023-04-14T05:14:39.505Z,89.50
2023-04-14T05:15:11.521Z,88.80
2023-04-14T05:15:43.324Z,87.90
2023-04-14T05:16:15.366Z,88.00
2023-04-14T05:16:47.220Z,88.00
2023-04-14T05:17:18.979Z,88.00
2023-04-14T05:17:50.987Z,89.70
2023-04-14T05:18:22.737Z,88.00
2023-04-14T05:18:54.936Z,88.80
2023-04-14T05:19:26.754Z,89.60
2023-04-14T05:19:58.563Z,89.70
2023-04-14T05:20:30.369Z,89.10
2023-04-14T05:21:06.841Z,88.10
2023-04-14T05:21:38.634Z,88.00
2023-04-14T05:22:10.530Z,88.20
2023-04-14T05:22:42.237Z,88.00
2023-04-14T05:23:14.021Z,88.10
2023-04-14T05:23:46.933Z,90.00
2023-04-14T05:24:18.691Z,88.10
2023-04-14T05:24:51.398Z,89.50
2023-04-14T05:25:24.129Z,90.00
2023-04-14T05:26:07.219Z,89.40
2023-04-14T05:27:09.436Z,88.10
2023-04-14T05:27:41.081Z,88.00
2023-04-14T05:28:14.439Z,89.40
2023-04-14T05:28:46.160Z,87.90
2023-04-14T05:29:18.340Z,89.60
2023-04-14T05:29:50.148Z,89.00
2023-04-14T05:30:21.956Z,89.10
2023-04-14T05:30:53.857Z,88.90
2023-04-14T05:31:25.925Z,88.90
2023-04-14T05:31:57.649Z,88.20
2023-04-14T05:32:29.537Z,88.20
2023-04-14T05:33:01.455Z,89.40
2023-04-14T05:33:34.431Z,88.40
2023-04-14T05:34:06.585Z,88.30
2023-04-14T05:34:38.322Z,89.20
2023-04-14T05:35:10.203Z,88.30
2023-04-14T05:35:44.378Z,88.40
2023-04-14T05:36:16.334Z,89.90
2023-04-14T05:36:48.122Z,89.80
2023-04-14T05:37:19.917Z,90.00
2023-04-14T05:37:51.883Z,88.30
2023-04-14T05:38:23.795Z,89.30
2023-04-14T05:38:55.608Z,88.40
2023-04-14T05:39:27.472Z,88.40
2023-04-14T05:39:59.244Z,89.50
2023-04-14T05:40:33.330Z,90.00
2023-04-14T05:41:05.676Z,90.00
2023-04-14T05:41:37.494Z,88.30
2023-04-14T05:42:09.261Z,88.30
2023-04-14T05:42:41.806Z,89.50
2023-04-14T05:43:14.534Z,90.00
2023-04-14T05:43:46.301Z,89.40
2023-04-14T05:44:18.034Z,88.40
2023-04-14T05:44:49.791Z,90.00
2023-04-14T05:45:21.539Z,88.90
2023-04-14T05:45:53.361Z,90.00
2023-04-14T05:46:25.271Z,88.60
2023-04-14T05:46:57.111Z,88.60
2023-04-14T05:47:28.928Z,90.00
2023-04-14T05:48:00.785Z,88.40
2023-04-14T05:48:33.526Z,88.30
2023-04-14T05:49:05.546Z,90.00
2023-04-14T05:49:37.346Z,89.50
2023-04-14T05:50:09.440Z,88.70
2023-04-14T05:50:41.358Z,88.50
2023-04-14T05:51:13.190Z,89.50
2023-04-14T05:51:46.013Z,89.70
2023-04-14T05:52:17.799Z,88.50
2023-04-14T05:52:50.086Z,90.10
2023-04-14T05:53:21.869Z,89.70
2023-04-14T05:53:53.829Z,89.80
2023-04-14T05:54:25.696Z,89.40
2023-04-14T05:54:57.468Z,89.70
2023-04-14T05:55:29.235Z,89.00
2023-04-14T05:56:01.410Z,89.60
2023-04-14T05:56:33.178Z,89.90
2023-04-14T05:57:05.622Z,88.50
2023-04-14T05:57:37.399Z,88.60
2023-04-14T05:58:09.337Z,88.70
2023-04-14T05:58:41.084Z,89.30
2023-04-14T05:59:13.131Z,88.50
2023-04-14T05:59:44.892Z,89.80
2023-04-14T06:00:17.133Z,88.60
2023-04-14T06:00:48.922Z,88.60
2023-04-14T06:01:20.826Z,89.70
2023-04-14T06:01:52.752Z,88.90
2023-04-14T06:02:24.723Z,88.60
2023-04-14T06:02:56.727Z,90.10
2023-04-14T06:03:28.842Z,90.20
2023-04-14T06:04:02.594Z,89.30
2023-04-14T06:04:34.795Z,88.70
2023-04-14T06:05:07.669Z,88.60
2023-04-14T06:05:39.799Z,88.70
2023-04-14T06:06:12.091Z,88.70
2023-04-14T06:06:43.956Z,88.80
2023-04-14T06:07:15.851Z,89.80
2023-04-14T06:07:47.577Z,89.80
2023-04-14T06:08:20.423Z,88.80
2023-04-14T06:08:52.168Z,88.90
2023-04-14T06:09:23.901Z,88.80
2023-04-14T06:09:55.676Z,88.80
2023-04-14T06:10:27.450Z,88.70
2023-04-14T06:10:59.201Z,88.80
2023-04-14T06:11:30.999Z,89.90
2023-04-14T06:12:02.937Z,88.90
2023-04-14T06:12:34.806Z,88.90
2023-04-14T06:13:08.548Z,89.80
2023-04-14T06:13:40.414Z,88.90
2023-04-14T06:14:12.183Z,89.70
2023-04-14T06:14:44.357Z,90.30
2023-04-14T06:15:16.362Z,89.00
2023-04-14T06:15:49.996Z,89.00
2023-04-14T06:16:21.858Z,89.10
2023-04-14T06:16:54.981Z,90.30
2023-04-14T06:17:26.803Z,89.10
2023-04-14T06:17:58.640Z,90.00
2023-04-14T06:18:30.628Z,89.60
2023-04-14T06:19:02.597Z,89.20
2023-04-14T06:19:34.513Z,89.30
2023-04-14T06:20:07.076Z,89.50
2023-04-14T06:20:39.292Z,89.20
2023-04-14T06:21:11.944Z,89.20
2023-04-14T06:21:43.788Z,90.00
2023-04-14T06:22:19.276Z,89.30
2023-04-14T06:22:51.330Z,90.20
2023-04-14T06:23:24.542Z,89.30
2023-04-14T06:23:56.534Z,90.00
2023-04-14T06:24:28.304Z,89.30
2023-04-14T06:25:00.750Z,89.40
2023-04-14T06:25:34.536Z,89.30
2023-04-14T06:26:06.721Z,89.40
2023-04-14T06:26:38.437Z,90.40
2023-04-14T06:27:10.724Z,90.20
2023-04-14T06:27:42.619Z,89.40
2023-04-14T06:28:14.773Z,90.00
2023-04-14T06:28:47.098Z,90.00
2023-04-14T06:29:19.095Z,89.40
2023-04-14T06:29:51.741Z,90.10
2023-04-14T06:30:23.465Z,89.30
2023-04-14T06:30:55.410Z,89.50
2023-04-14T06:31:27.146Z,89.40
2023-04-14T06:32:00.481Z,89.40
2023-04-14T06:32:32.367Z,89.40
2023-04-14T06:33:05.580Z,89.40
2023-04-14T06:33:37.340Z,89.40
2023-04-14T06:34:09.249Z,89.40
2023-04-14T06:34:41.230Z,90.20
2023-04-14T06:35:25.740Z,90.40
2023-04-14T06:36:04.103Z,89.50
2023-04-14T06:36:36.009Z,89.60
2023-04-14T06:37:07.969Z,90.60
2023-04-14T06:37:39.739Z,90.50
2023-04-14T06:38:11.508Z,89.80
2023-04-14T06:38:43.282Z,89.30
2023-04-14T06:39:15.719Z,89.80
2023-04-14T06:39:47.465Z,90.50
2023-04-14T06:40:19.354Z,90.30
2023-04-14T06:40:53.197Z,89.80
2023-04-14T06:41:25.310Z,88.40
2023-04-14T06:41:57.093Z,89.80
2023-04-14T06:42:28.852Z,89.90
2023-04-14T06:43:00.595Z,90.60
2023-04-14T06:43:33.211Z,90.20
2023-04-14T06:44:05.281Z,90.00
2023-04-14T06:44:37.084Z,90.30
2023-04-14T06:45:09.399Z,90.00
2023-04-14T06:45:41.293Z,90.00
2023-04-14T06:46:13.151Z,90.00
2023-04-14T06:46:44.921Z,90.00
2023-04-14T06:47:20.863Z,90.60
2023-04-14T06:47:52.983Z,90.00
2023-04-14T06:48:24.955Z,90.00
2023-04-14T06:48:56.673Z,90.00
2023-04-14T06:49:29.335Z,90.00
2023-04-14T06:50:01.104Z,90.60
2023-04-14T06:50:32.824Z,89.90
2023-04-14T06:51:04.722Z,90.60
2023-04-14T06:51:36.598Z,89.90
2023-04-14T06:52:08.342Z,89.90
2023-04-14T06:52:40.183Z,89.90
2023-04-14T06:53:12.192Z,88.90
2023-04-14T06:53:44.532Z,90.00
2023-04-14T06:54:16.708Z,90.70
2023-04-14T06:54:48.495Z,90.60
2023-04-14T06:55:21.700Z,90.00
2023-04-14T06:55:59.371Z,90.20
2023-04-14T06:56:31.570Z,90.00
2023-04-14T06:57:03.375Z,90.70
2023-04-14T06:57:35.365Z,90.30
2023-04-14T06:58:07.096Z,90.00
2023-04-14T06:58:40.067Z,89.80
2023-04-14T06:59:12.655Z,90.00
2023-04-14T06:59:44.416Z,89.90
2023-04-14T07:00:16.684Z,90.00
2023-04-14T07:00:48.488Z,89.90
2023-04-14T07:01:20.270Z,90.30
2023-04-14T07:01:52.293Z,90.30
2023-04-14T07:02:24.246Z,90.70
2023-04-14T07:02:56.254Z,90.70
2023-04-14T07:03:30.372Z,90.00
2023-04-14T07:04:07.458Z,90.00
2023-04-14T07:04:39.569Z,90.00
2023-04-14T07:05:11.551Z,90.10
2023-04-14T07:05:43.346Z,90.40
2023-04-14T07:06:17.101Z,90.70
2023-04-14T07:06:48.924Z,90.10
2023-04-14T07:07:20.734Z,90.30
2023-04-14T07:07:52.493Z,90.00
2023-04-14T07:08:24.295Z,90.80
2023-04-14T07:08:56.277Z,90.00
2023-04-14T07:09:29.253Z,90.30
2023-04-14T07:10:01.133Z,90.20
2023-04-14T07:10:32.992Z,90.00
2023-04-14T07:11:08.522Z,90.10
2023-04-14T07:11:40.443Z,90.60
2023-04-14T07:12:16.703Z,90.60
2023-04-14T07:12:48.446Z,90.10
2023-04-14T07:13:20.199Z,90.60
2023-04-14T07:13:52.027Z,90.00
2023-04-14T07:14:24.720Z,90.00
2023-04-14T07:14:56.504Z,90.60
2023-04-14T07:15:29.957Z,90.40
2023-04-14T07:16:03.314Z,90.10
2023-04-14T07:16:35.243Z,90.10
2023-04-14T07:17:07.087Z,90.10
2023-04-14T07:17:38.901Z,90.80
2023-04-14T07:18:10.847Z,90.80
2023-04-14T07:18:42.668Z,90.80
2023-04-14T07:19:15.453Z,90.50
2023-04-14T07:19:47.222Z,90.00
2023-04-14T07:20:18.937Z,90.60
2023-04-14T07:20:54.264Z,90.10
2023-04-14T07:21:26.032Z,90.60
2023-04-14T07:21:57.840Z,90.10
2023-04-14T07:22:29.597Z,90.50
2023-04-14T07:23:01.336Z,90.10
2023-04-14T07:23:33.655Z,90.20
2023-04-14T07:24:06.023Z,90.20
2023-04-14T07:24:38.481Z,90.20
2023-04-14T07:25:10.403Z,90.50
2023-04-14T07:25:42.202Z,90.10
2023-04-14T07:26:14.026Z,90.90
2023-04-14T07:26:45.932Z,90.20
2023-04-14T07:27:17.870Z,90.40
2023-04-14T07:28:00.378Z,91.00
2023-04-14T07:28:34.698Z,90.20
2023-04-14T07:29:06.478Z,90.50
2023-04-14T07:29:38.235Z,90.30
2023-04-14T07:30:10.189Z,90.30
2023-04-14T07:30:41.930Z,90.30
2023-04-14T07:31:13.766Z,90.50
2023-04-14T07:31:45.731Z,90.90
2023-04-14T07:32:18.264Z,90.30
2023-04-14T07:32:50.054Z,90.30
2023-04-14T07:33:25.300Z,90.40
2023-04-14T07:33:57.105Z,90.80
2023-04-14T07:34:28.842Z,90.80
2023-04-14T07:35:00.617Z,90.40
2023-04-14T07:35:32.553Z,90.60
2023-04-14T07:36:09.261Z,90.30
2023-04-14T07:36:41.040Z,90.30
2023-04-14T07:37:12.928Z,90.70
2023-04-14T07:37:44.694Z,90.40
2023-04-14T07:38:16.570Z,90.30
2023-04-14T07:38:51.778Z,90.30
2023-04-14T07:39:24.540Z,90.40
2023-04-14T07:39:56.421Z,90.40
2023-04-14T07:40:28.279Z,91.10
2023-04-14T07:41:02.888Z,90.40
2023-04-14T07:41:34.774Z,91.00
2023-04-14T07:42:06.679Z,91.10
2023-04-14T07:42:38.419Z,90.70
2023-04-14T07:43:10.280Z,91.20
2023-04-14T07:43:42.040Z,90.80
2023-04-14T07:44:13.851Z,90.60
2023-04-14T07:44:45.611Z,90.30
2023-04-14T07:45:17.707Z,90.70
2023-04-14T07:45:49.722Z,90.50
2023-04-14T07:46:22.143Z,90.30
2023-04-14T07:46:54.034Z,91.10
2023-04-14T07:47:26.006Z,90.60
2023-04-14T07:47:58.108Z,91.10
2023-04-14T07:48:34.231Z,90.20
2023-04-14T07:49:06.055Z,90.30
2023-04-14T07:49:37.940Z,90.60
2023-04-14T07:50:10.701Z,90.30
2023-04-14T07:50:42.440Z,90.30
2023-04-14T07:51:17.301Z,90.40
2023-04-14T07:51:49.305Z,90.40
2023-04-14T07:52:21.148Z,90.70
2023-04-14T07:52:53.097Z,90.30
2023-04-14T07:53:25.345Z,90.40
2023-04-14T07:53:57.110Z,90.90
2023-04-14T07:54:29.933Z,90.30
2023-04-14T07:55:01.738Z,91.00
2023-04-14T07:55:33.477Z,90.40
2023-04-14T07:56:05.759Z,91.10
2023-04-14T07:56:37.522Z,90.50
2023-04-14T07:57:10.738Z,91.20
2023-04-14T07:57:42.547Z,90.60
2023-04-14T07:58:16.327Z,90.60
2023-04-14T07:58:48.198Z,90.70
2023-04-14T07:59:20.369Z,90.70
2023-04-14T07:59:53.152Z,90.60
2023-04-14T08:00:25.049Z,91.30
2023-04-14T08:00:57.343Z,90.80
2023-04-14T08:01:29.120Z,91.30
2023-04-14T08:02:01.332Z,91.40
2023-04-14T08:02:33.318Z,91.30
2023-04-14T08:03:05.312Z,90.90
2023-04-14T08:03:37.921Z,91.20
2023-04-14T08:04:11.005Z,91.00
2023-04-14T08:04:43.171Z,91.20
2023-04-14T08:05:15.124Z,91.00
2023-04-14T08:05:47.559Z,91.00
2023-04-14T08:06:20.424Z,91.10
2023-04-14T08:06:52.279Z,91.00
2023-04-14T08:07:24.071Z,91.30
2023-04-14T08:07:55.894Z,91.20
2023-04-14T08:08:28.259Z,91.80
2023-04-14T08:09:00.510Z,91.10
2023-04-14T08:09:32.478Z,91.30
2023-04-14T08:10:04.516Z,91.30
2023-04-14T08:10:38.818Z,91.20
2023-04-14T08:11:10.723Z,91.30
2023-04-14T08:11:42.564Z,91.30
2023-04-14T08:12:14.308Z,91.60
2023-04-14T08:12:46.081Z,91.10
2023-04-14T08:13:17.813Z,91.60
2023-04-14T08:13:52.944Z,91.20
2023-04-14T08:14:24.984Z,92.00
2023-04-14T08:14:57.254Z,91.30
2023-04-14T08:15:29.022Z,91.10
2023-04-14T08:16:01.046Z,91.40
2023-04-14T08:16:36.589Z,91.40
2023-04-14T08:17:08.670Z,91.20
2023-04-14T08:17:40.893Z,91.80
2023-04-14T08:18:12.698Z,91.90
2023-04-14T08:18:44.936Z,92.10
2023-04-14T08:19:16.728Z,91.90
2023-04-14T08:19:48.514Z,91.70
2023-04-14T08:20:20.292Z,92.10
2023-04-14T08:20:52.110Z,91.30
2023-04-14T08:21:23.845Z,91.30
2023-04-14T08:21:55.734Z,91.30
2023-04-14T08:22:27.462Z,91.30
2023-04-14T08:22:59.321Z,91.50
2023-04-14T08:23:31.325Z,91.80
2023-04-14T08:24:03.189Z,91.60
2023-04-14T08:24:37.215Z,91.50
2023-04-14T08:25:13.095Z,92.10
2023-04-14T08:25:44.942Z,91.90
2023-04-14T08:26:16.672Z,91.70
2023-04-14T08:26:48.541Z,92.10
2023-04-14T08:27:20.872Z,91.60
2023-04-14T08:27:52.659Z,90.70
2023-04-14T08:28:24.657Z,91.50
2023-04-14T08:28:56.430Z,91.20
2023-04-14T08:29:28.554Z,91.20
2023-04-14T08:30:00.536Z,91.50
2023-04-14T08:30:32.393Z,91.70
2023-04-14T08:31:04.376Z,91.40
2023-04-14T08:31:36.346Z,91.20
2023-04-14T08:32:08.371Z,91.50
2023-04-14T08:32:40.660Z,91.50
2023-04-14T08:33:12.528Z,91.60
2023-04-14T08:33:44.251Z,91.40
2023-04-14T08:34:21.194Z,91.60
2023-04-14T08:35:37.097Z,92.30
2023-04-14T08:35:59.646Z,92.30
2023-04-14T08:36:32.366Z,91.60
2023-04-14T08:37:06.860Z,91.40
2023-04-14T08:37:38.630Z,91.50
2023-04-14T08:38:10.754Z,91.50
2023-04-14T08:38:42.787Z,91.60
2023-04-14T08:39:15.452Z,92.00
2023-04-14T08:39:47.219Z,91.60
2023-04-14T08:40:21.839Z,91.60
2023-04-14T08:40:58.865Z,92.50
2023-04-14T08:41:33.768Z,92.10
2023-04-14T08:42:06.775Z,92.00
2023-04-14T08:42:38.743Z,91.70
2023-04-14T08:43:13.271Z,92.10
2023-04-14T08:43:47.369Z,91.60
2023-04-14T08:44:19.351Z,92.00
2023-04-14T08:44:52.592Z,92.20
2023-04-14T08:45:24.868Z,91.80
2023-04-14T08:45:59.773Z,91.60
2023-04-14T08:46:32.451Z,92.30
2023-04-14T08:47:05.946Z,91.70
2023-04-14T08:47:40.704Z,91.80
2023-04-14T08:48:16.353Z,91.70
2023-04-14T08:48:54.354Z,92.40
2023-04-14T08:49:46.217Z,91.90
2023-04-14T08:50:25.494Z,91.50
2023-04-14T08:51:16.160Z,91.90
2023-04-14T08:51:49.172Z,91.90
2023-04-14T08:52:24.294Z,91.90
2023-04-14T08:52:57.163Z,92.00
2023-04-14T08:53:31.972Z,92.10
2023-04-14T08:54:08.154Z,92.00
2023-04-14T08:54:41.939Z,92.30
2023-04-14T08:55:16.272Z,92.40
2023-04-14T08:55:48.929Z,91.80
2023-04-14T08:56:22.050Z,91.90
2023-04-14T08:56:58.580Z,91.70
2023-04-14T08:57:33.425Z,92.60
2023-04-14T08:58:11.055Z,91.80